Rechercher aéroport 
image banner adimage banner adimage banner ad
image banner ad

O08 - Colusa County

Situé à Colusa, United States

ICAO - O08, IATA -

Données fournies par Airmate  

Information générale

Coordonnées: N39°10'44" W121°59'36"
Élévation : 49 feet MSL.
Variation magnétique : 14° East
Voir autres Aéroports à California

Données opérationnelles

Special qualification required
Heure actuelle UTC:
Heure actuelle locale:
Météo à : KMYV - Yuba County ( 38 km )
METAR: KMYV 020453Z AUTO 16012KT 10SM CLR 26/12 A2996 RMK AO2 SLP147 T02610117
Voir NOTAMs / SUP AIP / TFR affectant cet aéroport [VIEW]
Fréquences de communication: [VIEW]

Pistes:

Identifiant RWYQFULongueur (ft)Largeur (ft)SurfaceLDA (ft)
13151°303459ASPH
31331°303459ASPH

Coordonnées de l'aéroport

Adresse: Colusa United States

Vue satellite de O08